sensor_id;sensor_type;location;lat;lon;timestamp;pressure;altitude;pressure_sealevel;temperature;humidity
70302;BME280;57706;56.326;43.882;2022-08-05T00:02:17;101365.50;;;21.94;79.74
70302;BME280;57706;56.326;43.882;2022-08-05T00:04:43;101369.00;;;21.94;78.70
70302;BME280;57706;56.326;43.882;2022-08-05T00:07:10;101366.13;;;21.96;78.52
70302;BME280;57706;56.326;43.882;2022-08-05T00:09:36;101363.63;;;21.94;78.46
70302;BME280;57706;56.326;43.882;2022-08-05T00:12:02;101375.81;;;21.90;78.33
70302;BME280;57706;56.326;43.882;2022-08-05T00:14:28;101374.00;;;21.84;78.80
70302;BME280;57706;56.326;43.882;2022-08-05T00:16:54;101369.94;;;21.75;79.60
70302;BME280;57706;56.326;43.882;2022-08-05T00:19:21;101377.34;;;21.72;79.43
70302;BME280;57706;56.326;43.882;2022-08-05T00:21:46;101376.97;;;21.69;79.42
70302;BME280;57706;56.326;43.882;2022-08-05T00:24:12;101377.78;;;21.63;79.91
70302;BME280;57706;56.326;43.882;2022-08-05T00:26:38;101375.75;;;21.58;79.80
70302;BME280;57706;56.326;43.882;2022-08-05T00:29:04;101370.81;;;21.55;80.17
70302;BME280;57706;56.326;43.882;2022-08-05T00:31:30;101370.63;;;21.50;80.18
70302;BME280;57706;56.326;43.882;2022-08-05T00:33:56;101368.78;;;21.43;80.44
70302;BME280;57706;56.326;43.882;2022-08-05T00:36:22;101374.38;;;21.35;80.63
70302;BME280;57706;56.326;43.882;2022-08-05T00:38:49;101371.72;;;21.28;81.02
70302;BME280;57706;56.326;43.882;2022-08-05T00:41:29;101375.44;;;21.21;81.31
70302;BME280;57706;56.326;43.882;2022-08-05T00:44:14;101378.75;;;21.09;81.37
70302;BME280;57706;56.326;43.882;2022-08-05T00:46:40;101381.66;;;21.01;81.61
70302;BME280;57706;56.326;43.882;2022-08-05T00:49:06;101377.56;;;20.92;81.95
70302;BME280;57706;56.326;43.882;2022-08-05T00:51:32;101375.72;;;20.85;82.25
70302;BME280;57706;56.326;43.882;2022-08-05T00:53:58;101382.06;;;20.77;82.71
70302;BME280;57706;56.326;43.882;2022-08-05T00:56:42;101376.72;;;20.71;83.01
70302;BME280;57706;56.326;43.882;2022-08-05T00:59:08;101377.56;;;20.65;82.98
70302;BME280;57706;56.326;43.882;2022-08-05T01:01:34;101378.38;;;20.58;83.27
70302;BME280;57706;56.326;43.882;2022-08-05T01:04:01;101371.78;;;20.54;83.53
70302;BME280;57706;56.326;43.882;2022-08-05T01:06:27;101371.59;;;20.49;83.61
70302;BME280;57706;56.326;43.882;2022-08-05T01:08:53;101381.25;;;20.50;83.58
70302;BME280;57706;56.326;43.882;2022-08-05T01:11:26;101379.59;;;20.49;83.43
70302;BME280;57706;56.326;43.882;2022-08-05T01:16:49;101385.94;;;20.41;83.73
70302;BME280;57706;56.326;43.882;2022-08-05T01:19:25;101388.19;;;20.38;84.14
70302;BME280;57706;56.326;43.882;2022-08-05T01:30:03;101390.69;;;20.32;84.28
70302;BME280;57706;56.326;43.882;2022-08-05T01:32:32;101393.97;;;20.34;83.97
70302;BME280;57706;56.326;43.882;2022-08-05T01:35:02;101393.16;;;20.34;84.08
70302;BME280;57706;56.326;43.882;2022-08-05T01:37:43;101390.50;;;20.34;84.21
70302;BME280;57706;56.326;43.882;2022-08-05T01:40:10;101388.00;;;20.32;84.24
70302;BME280;57706;56.326;43.882;2022-08-05T01:42:56;101386.97;;;20.33;84.30
70302;BME280;57706;56.326;43.882;2022-08-05T01:45:25;101397.25;;;20.36;84.27
70302;BME280;57706;56.326;43.882;2022-08-05T01:47:52;101387.41;;;20.37;84.13
70302;BME280;57706;56.326;43.882;2022-08-05T01:50:24;101391.72;;;20.52;83.85
70302;BME280;57706;56.326;43.882;2022-08-05T01:52:52;101383.31;;;20.68;83.41
70302;BME280;57706;56.326;43.882;2022-08-05T01:55:23;101383.09;;;20.70;82.91
70302;BME280;57706;56.326;43.882;2022-08-05T01:57:51;101385.34;;;20.66;82.89
70302;BME280;57706;56.326;43.882;2022-08-05T02:00:18;101396.03;;;20.66;82.82
70302;BME280;57706;56.326;43.882;2022-08-05T02:02:51;101396.88;;;20.67;83.01
70302;BME280;57706;56.326;43.882;2022-08-05T02:05:19;101399.09;;;20.70;82.80
70302;BME280;57706;56.326;43.882;2022-08-05T02:07:47;101397.69;;;20.74;82.72
70302;BME280;57706;56.326;43.882;2022-08-05T02:10:13;101394.59;;;20.77;82.52
70302;BME280;57706;56.326;43.882;2022-08-05T02:12:48;101395.66;;;20.83;82.49
70302;BME280;57706;56.326;43.882;2022-08-05T02:17:56;101400.56;;;20.93;82.00
70302;BME280;57706;56.326;43.882;2022-08-05T02:20:25;101400.16;;;20.96;81.83
70302;BME280;57706;56.326;43.882;2022-08-05T02:22:59;101412.91;;;21.00;82.52
70302;BME280;57706;56.326;43.882;2022-08-05T02:25:44;101398.94;;;21.05;82.13
70302;BME280;57706;56.326;43.882;2022-08-05T02:28:30;101406.09;;;21.11;81.98
70302;BME280;57706;56.326;43.882;2022-08-05T02:31:07;101402.16;;;21.21;81.68
70302;BME280;57706;56.326;43.882;2022-08-05T02:33:36;101406.88;;;21.32;81.15
70302;BME280;57706;56.326;43.882;2022-08-05T02:36:06;101413.66;;;21.41;80.80
70302;BME280;57706;56.326;43.882;2022-08-05T02:38:34;101401.69;;;21.51;80.33
70302;BME280;57706;56.326;43.882;2022-08-05T02:41:02;101412.75;;;21.61;79.78
70302;BME280;57706;56.326;43.882;2022-08-05T02:43:29;101414.81;;;21.72;79.14
70302;BME280;57706;56.326;43.882;2022-08-05T02:45:57;101406.09;;;21.84;78.61
70302;BME280;57706;56.326;43.882;2022-08-05T02:48:25;101413.06;;;21.92;77.93
70302;BME280;57706;56.326;43.882;2022-08-05T02:50:52;101415.09;;;21.96;77.48
70302;BME280;57706;56.326;43.882;2022-08-05T02:53:19;101421.31;;;21.90;77.02
70302;BME280;57706;56.326;43.882;2022-08-05T02:55:49;101418.03;;;21.88;76.77
70302;BME280;57706;56.326;43.882;2022-08-05T02:58:20;101418.97;;;22.00;76.05
70302;BME280;57706;56.326;43.882;2022-08-05T03:00:46;101424.44;;;22.19;74.92
70302;BME280;57706;56.326;43.882;2022-08-05T03:03:18;101419.00;;;22.33;74.31
70302;BME280;57706;56.326;43.882;2022-08-05T03:05:46;101419.72;;;22.47;73.73
70302;BME280;57706;56.326;43.882;2022-08-05T03:08:13;101423.59;;;22.58;73.31
70302;BME280;57706;56.326;43.882;2022-08-05T03:10:43;101424.97;;;22.67;72.04
70302;BME280;57706;56.326;43.882;2022-08-05T03:13:15;101424.09;;;22.73;71.72
70302;BME280;57706;56.326;43.882;2022-08-05T03:15:42;101426.50;;;22.81;71.61
70302;BME280;57706;56.326;43.882;2022-08-05T03:18:08;101423.94;;;22.93;71.30
70302;BME280;57706;56.326;43.882;2022-08-05T03:20:34;101427.97;;;23.03;70.04
70302;BME280;57706;56.326;43.882;2022-08-05T03:23:01;101427.47;;;23.13;69.89
70302;BME280;57706;56.326;43.882;2022-08-05T03:25:29;101431.91;;;23.19;69.53
70302;BME280;57706;56.326;43.882;2022-08-05T03:27:56;101441.44;;;23.15;69.35
70302;BME280;57706;56.326;43.882;2022-08-05T03:30:23;101444.72;;;23.17;69.28
70302;BME280;57706;56.326;43.882;2022-08-05T03:32:49;101438.56;;;23.16;67.80
70302;BME280;57706;56.326;43.882;2022-08-05T03:35:15;101440.13;;;23.24;67.20
70302;BME280;57706;56.326;43.882;2022-08-05T03:37:41;101434.19;;;23.41;66.68
70302;BME280;57706;56.326;43.882;2022-08-05T03:40:08;101427.88;;;23.54;65.77
70302;BME280;57706;56.326;43.882;2022-08-05T03:42:34;101438.06;;;23.63;65.55
70302;BME280;57706;56.326;43.882;2022-08-05T03:45:00;101430.91;;;23.76;65.20
70302;BME280;57706;56.326;43.882;2022-08-05T03:47:28;101438.09;;;23.94;65.09
70302;BME280;57706;56.326;43.882;2022-08-05T03:49:54;101441.75;;;24.00;63.83
70302;BME280;57706;56.326;43.882;2022-08-05T03:53:04;101437.50;;;24.11;62.49
70302;BME280;57706;56.326;43.882;2022-08-05T03:55:34;101442.31;;;24.21;61.60
70302;BME280;57706;56.326;43.882;2022-08-05T03:58:03;101442.38;;;24.32;61.73
70302;BME280;57706;56.326;43.882;2022-08-05T04:00:30;101442.25;;;24.39;61.68
70302;BME280;57706;56.326;43.882;2022-08-05T04:03:00;101440.41;;;24.52;61.58
70302;BME280;57706;56.326;43.882;2022-08-05T04:05:29;101445.56;;;24.65;60.91
70302;BME280;57706;56.326;43.882;2022-08-05T04:07:56;101441.13;;;24.71;58.61
70302;BME280;57706;56.326;43.882;2022-08-05T04:10:22;101440.31;;;24.70;58.66
70302;BME280;57706;56.326;43.882;2022-08-05T04:12:48;101441.16;;;24.83;58.50
70302;BME280;57706;56.326;43.882;2022-08-05T04:15:14;101440.59;;;24.93;57.77
70302;BME280;57706;56.326;43.882;2022-08-05T04:17:40;101438.97;;;25.04;55.88
70302;BME280;57706;56.326;43.882;2022-08-05T04:20:06;101434.25;;;25.11;57.24
70302;BME280;57706;56.326;43.882;2022-08-05T04:22:32;101443.16;;;25.23;57.31
70302;BME280;57706;56.326;43.882;2022-08-05T04:24:58;101447.09;;;25.33;57.04
70302;BME280;57706;56.326;43.882;2022-08-05T04:27:24;101439.72;;;25.40;56.84
70302;BME280;57706;56.326;43.882;2022-08-05T04:29:50;101442.66;;;25.38;56.68
70302;BME280;57706;56.326;43.882;2022-08-05T04:32:15;101443.00;;;25.42;56.52
70302;BME280;57706;56.326;43.882;2022-08-05T04:34:41;101442.78;;;25.55;56.19
70302;BME280;57706;56.326;43.882;2022-08-05T04:37:07;101438.50;;;25.72;56.29
70302;BME280;57706;56.326;43.882;2022-08-05T04:39:33;101447.72;;;25.88;55.78
70302;BME280;57706;56.326;43.882;2022-08-05T04:41:59;101435.00;;;26.00;55.53
70302;BME280;57706;56.326;43.882;2022-08-05T04:44:25;101441.41;;;26.11;55.11
70302;BME280;57706;56.326;43.882;2022-08-05T04:46:51;101436.22;;;26.21;54.78
70302;BME280;57706;56.326;43.882;2022-08-05T04:49:17;101439.16;;;26.37;54.53
70302;BME280;57706;56.326;43.882;2022-08-05T04:51:43;101439.09;;;26.49;54.09
70302;BME280;57706;56.326;43.882;2022-08-05T04:54:09;101439.19;;;26.54;52.75
70302;BME280;57706;56.326;43.882;2022-08-05T04:56:35;101438.19;;;26.60;52.78
70302;BME280;57706;56.326;43.882;2022-08-05T04:59:00;101441.31;;;26.69;52.19
70302;BME280;57706;56.326;43.882;2022-08-05T05:01:45;101440.72;;;26.84;52.19
70302;BME280;57706;56.326;43.882;2022-08-05T05:04:11;101436.72;;;26.87;52.69
70302;BME280;57706;56.326;43.882;2022-08-05T05:06:37;101441.78;;;26.83;52.72
70302;BME280;57706;56.326;43.882;2022-08-05T05:09:03;101440.16;;;26.99;52.60
70302;BME280;57706;56.326;43.882;2022-08-05T05:11:29;101445.47;;;27.11;52.33
70302;BME280;57706;56.326;43.882;2022-08-05T05:13:55;101445.09;;;27.25;52.04
70302;BME280;57706;56.326;43.882;2022-08-05T05:16:21;101445.22;;;27.35;51.61
70302;BME280;57706;56.326;43.882;2022-08-05T05:18:47;101448.06;;;27.45;50.90
70302;BME280;57706;56.326;43.882;2022-08-05T05:21:13;101449.16;;;27.49;50.92
70302;BME280;57706;56.326;43.882;2022-08-05T05:23:38;101441.50;;;27.41;51.09
70302;BME280;57706;56.326;43.882;2022-08-05T05:26:04;101444.50;;;27.62;51.08
70302;BME280;57706;56.326;43.882;2022-08-05T05:28:30;101456.59;;;27.82;51.42
70302;BME280;57706;56.326;43.882;2022-08-05T05:30:56;101448.66;;;27.97;51.76
70302;BME280;57706;56.326;43.882;2022-08-05T05:33:22;101454.59;;;27.99;51.16
70302;BME280;57706;56.326;43.882;2022-08-05T05:35:48;101454.38;;;28.28;50.40
70302;BME280;57706;56.326;43.882;2022-08-05T05:38:16;101450.09;;;28.65;49.57
70302;BME280;57706;56.326;43.882;2022-08-05T05:40:42;101446.16;;;28.83;48.92
70302;BME280;57706;56.326;43.882;2022-08-05T05:43:08;101447.13;;;29.10;46.75
70302;BME280;57706;56.326;43.882;2022-08-05T05:45:34;101441.84;;;29.36;45.39
70302;BME280;57706;56.326;43.882;2022-08-05T05:48:00;101445.78;;;29.71;44.91
70302;BME280;57706;56.326;43.882;2022-08-05T05:50:26;101447.19;;;30.00;44.81
70302;BME280;57706;56.326;43.882;2022-08-05T05:52:52;101445.06;;;30.33;44.53
70302;BME280;57706;56.326;43.882;2022-08-05T05:55:18;101440.19;;;30.61;43.73
70302;BME280;57706;56.326;43.882;2022-08-05T05:57:46;101439.38;;;30.76;43.82
70302;BME280;57706;56.326;43.882;2022-08-05T06:00:16;101439.09;;;30.72;43.67
70302;BME280;57706;56.326;43.882;2022-08-05T06:02:43;101437.75;;;30.65;43.59
70302;BME280;57706;56.326;43.882;2022-08-05T06:05:12;101440.19;;;30.56;43.79
70302;BME280;57706;56.326;43.882;2022-08-05T06:07:39;101440.72;;;30.58;43.23
70302;BME280;57706;56.326;43.882;2022-08-05T06:10:05;101437.22;;;30.57;43.18
70302;BME280;57706;56.326;43.882;2022-08-05T06:12:36;101447.25;;;30.36;41.20
70302;BME280;57706;56.326;43.882;2022-08-05T06:15:04;101444.81;;;30.40;41.44
70302;BME280;57706;56.326;43.882;2022-08-05T06:17:30;101444.56;;;30.36;42.21
70302;BME280;57706;56.326;43.882;2022-08-05T06:19:56;101448.31;;;30.50;41.97
70302;BME280;57706;56.326;43.882;2022-08-05T06:22:28;101443.44;;;30.73;41.45
70302;BME280;57706;56.326;43.882;2022-08-05T06:24:54;101447.38;;;32.58;38.40
70302;BME280;57706;56.326;43.882;2022-08-05T06:27:39;101443.09;;;36.03;31.39
70302;BME280;57706;56.326;43.882;2022-08-05T06:30:07;101449.59;;;38.26;27.82
70302;BME280;57706;56.326;43.882;2022-08-05T06:32:32;101441.22;;;39.51;25.96
70302;BME280;57706;56.326;43.882;2022-08-05T06:34:58;101434.09;;;41.71;23.77
70302;BME280;57706;56.326;43.882;2022-08-05T06:37:26;101427.44;;;43.60;20.87
70302;BME280;57706;56.326;43.882;2022-08-05T06:40:11;101430.09;;;45.31;20.61
70302;BME280;57706;56.326;43.882;2022-08-05T06:42:37;101419.00;;;46.63;19.28
70302;BME280;57706;56.326;43.882;2022-08-05T06:45:03;101414.56;;;47.61;18.41
70302;BME280;57706;56.326;43.882;2022-08-05T06:47:30;101418.19;;;48.49;17.68
70302;BME280;57706;56.326;43.882;2022-08-05T06:49:56;101405.13;;;49.21;15.49
70302;BME280;57706;56.326;43.882;2022-08-05T06:52:22;101405.59;;;50.18;15.85
70302;BME280;57706;56.326;43.882;2022-08-05T06:54:48;101401.84;;;51.01;14.09
70302;BME280;57706;56.326;43.882;2022-08-05T06:57:14;101407.34;;;51.63;14.07
70302;BME280;57706;56.326;43.882;2022-08-05T06:59:43;101397.06;;;51.57;13.13
70302;BME280;57706;56.326;43.882;2022-08-05T07:02:09;101399.59;;;52.19;13.29
70302;BME280;57706;56.326;43.882;2022-08-05T07:04:35;101396.53;;;52.91;13.18
70302;BME280;57706;56.326;43.882;2022-08-05T07:07:01;101395.47;;;53.38;12.39
70302;BME280;57706;56.326;43.882;2022-08-05T07:09:27;101397.59;;;52.80;12.61
70302;BME280;57706;56.326;43.882;2022-08-05T07:11:52;101388.75;;;53.52;12.11
70302;BME280;57706;56.326;43.882;2022-08-05T07:14:20;101382.56;;;54.33;10.66
70302;BME280;57706;56.326;43.882;2022-08-05T07:17:05;101381.47;;;54.30;11.34
70302;BME280;57706;56.326;43.882;2022-08-05T07:19:49;101383.88;;;55.36;10.26
70302;BME280;57706;56.326;43.882;2022-08-05T07:22:17;101375.22;;;55.78;9.94
70302;BME280;57706;56.326;43.882;2022-08-05T07:24:46;101372.00;;;55.41;9.78
70302;BME280;57706;56.326;43.882;2022-08-05T07:27:12;101373.09;;;55.92;9.82
70302;BME280;57706;56.326;43.882;2022-08-05T07:29:38;101370.69;;;56.57;9.98
70302;BME280;57706;56.326;43.882;2022-08-05T07:32:06;101368.72;;;57.17;9.57
70302;BME280;57706;56.326;43.882;2022-08-05T07:34:31;101366.56;;;57.59;9.22
70302;BME280;57706;56.326;43.882;2022-08-05T07:36:57;101361.69;;;57.97;8.69
70302;BME280;57706;56.326;43.882;2022-08-05T07:39:23;101360.25;;;58.11;7.95
70302;BME280;57706;56.326;43.882;2022-08-05T07:41:49;101362.44;;;57.04;9.11
70302;BME280;57706;56.326;43.882;2022-08-05T07:44:15;101360.22;;;56.58;8.60
70302;BME280;57706;56.326;43.882;2022-08-05T07:46:41;101358.56;;;56.79;8.63
70302;BME280;57706;56.326;43.882;2022-08-05T07:49:06;101350.56;;;55.92;8.72
70302;BME280;57706;56.326;43.882;2022-08-05T07:51:34;101348.97;;;56.35;8.82
70302;BME280;57706;56.326;43.882;2022-08-05T07:54:00;101344.69;;;50.05;13.06
70302;BME280;57706;56.326;43.882;2022-08-05T07:56:26;101351.00;;;45.44;16.00
70302;BME280;57706;56.326;43.882;2022-08-05T07:58:52;101347.75;;;43.26;18.53
70302;BME280;57706;56.326;43.882;2022-08-05T08:01:18;101351.94;;;41.64;20.58
70302;BME280;57706;56.326;43.882;2022-08-05T08:03:44;101345.59;;;40.28;22.50
70302;BME280;57706;56.326;43.882;2022-08-05T08:06:09;101346.91;;;39.17;23.82
70302;BME280;57706;56.326;43.882;2022-08-05T08:08:35;101353.19;;;38.36;25.07
70302;BME280;57706;56.326;43.882;2022-08-05T08:11:01;101348.81;;;37.96;25.82
70302;BME280;57706;56.326;43.882;2022-08-05T08:13:27;101352.28;;;37.49;26.93
70302;BME280;57706;56.326;43.882;2022-08-05T08:15:53;101340.28;;;36.74;27.85
70302;BME280;57706;56.326;43.882;2022-08-05T08:18:19;101344.22;;;36.10;28.79
70302;BME280;57706;56.326;43.882;2022-08-05T08:21:04;101349.56;;;35.10;30.02
70302;BME280;57706;56.326;43.882;2022-08-05T08:23:30;101352.09;;;34.92;30.62
70302;BME280;57706;56.326;43.882;2022-08-05T08:25:56;101355.56;;;34.56;31.51
70302;BME280;57706;56.326;43.882;2022-08-05T08:28:22;101357.66;;;33.98;30.64
70302;BME280;57706;56.326;43.882;2022-08-05T08:30:48;101361.38;;;35.05;29.51
70302;BME280;57706;56.326;43.882;2022-08-05T08:33:14;101360.44;;;35.24;29.24
70302;BME280;57706;56.326;43.882;2022-08-05T08:35:40;101358.97;;;35.18;29.34
70302;BME280;57706;56.326;43.882;2022-08-05T08:38:06;101362.25;;;38.37;25.07
70302;BME280;57706;56.326;43.882;2022-08-05T08:40:33;101358.31;;;44.91;18.50
70302;BME280;57706;56.326;43.882;2022-08-05T08:43:00;101365.03;;;49.56;14.71
70302;BME280;57706;56.326;43.882;2022-08-05T08:45:27;101353.38;;;49.69;14.36
70302;BME280;57706;56.326;43.882;2022-08-05T08:47:55;101351.94;;;45.59;18.12
70302;BME280;57706;56.326;43.882;2022-08-05T08:50:24;101347.84;;;42.55;20.93
70302;BME280;57706;56.326;43.882;2022-08-05T08:52:57;101352.97;;;40.37;22.66
70302;BME280;57706;56.326;43.882;2022-08-05T08:55:25;101350.81;;;38.86;24.48
70302;BME280;57706;56.326;43.882;2022-08-05T08:57:51;101351.59;;;37.70;25.51
70302;BME280;57706;56.326;43.882;2022-08-05T09:00:17;101355.00;;;37.31;26.19
70302;BME280;57706;56.326;43.882;2022-08-05T09:02:43;101337.22;;;36.85;27.91
70302;BME280;57706;56.326;43.882;2022-08-05T09:05:11;101352.59;;;36.54;28.52
70302;BME280;57706;56.326;43.882;2022-08-05T09:07:38;101348.31;;;36.30;29.04
70302;BME280;57706;56.326;43.882;2022-08-05T09:10:04;101350.81;;;37.43;27.92
70302;BME280;57706;56.326;43.882;2022-08-05T09:12:30;101349.88;;;39.79;24.82
70302;BME280;57706;56.326;43.882;2022-08-05T09:14:56;101341.69;;;40.04;23.85
70302;BME280;57706;56.326;43.882;2022-08-05T09:17:22;101337.06;;;39.16;24.20
70302;BME280;57706;56.326;43.882;2022-08-05T09:19:48;101342.56;;;41.65;21.80
70302;BME280;57706;56.326;43.882;2022-08-05T09:22:14;101340.63;;;45.00;18.61
70302;BME280;57706;56.326;43.882;2022-08-05T09:24:40;101349.75;;;43.06;20.72
70302;BME280;57706;56.326;43.882;2022-08-05T09:27:08;101332.59;;;44.06;19.21
70302;BME280;57706;56.326;43.882;2022-08-05T09:29:41;101343.88;;;42.04;21.38
70302;BME280;57706;56.326;43.882;2022-08-05T09:32:11;101341.31;;;41.50;21.61
70302;BME280;57706;56.326;43.882;2022-08-05T09:34:52;101345.94;;;46.62;16.11
70302;BME280;57706;56.326;43.882;2022-08-05T09:37:23;101339.63;;;50.31;13.60
70302;BME280;57706;56.326;43.882;2022-08-05T09:39:49;101334.38;;;53.75;11.65
70302;BME280;57706;56.326;43.882;2022-08-05T09:42:17;101326.97;;;55.98;10.02
70302;BME280;57706;56.326;43.882;2022-08-05T09:44:46;101333.19;;;56.88;9.55
70302;BME280;57706;56.326;43.882;2022-08-05T09:47:15;101321.97;;;58.00;8.68
70302;BME280;57706;56.326;43.882;2022-08-05T09:49:48;101331.13;;;56.38;8.86
70302;BME280;57706;56.326;43.882;2022-08-05T09:55:11;101324.69;;;59.90;7.79
70302;BME280;57706;56.326;43.882;2022-08-05T09:57:45;101311.19;;;58.23;8.78
70302;BME280;57706;56.326;43.882;2022-08-05T10:02:42;101310.59;;;59.81;7.40
70302;BME280;57706;56.326;43.882;2022-08-05T10:05:11;101312.16;;;60.12;7.48
70302;BME280;57706;56.326;43.882;2022-08-05T10:10:49;101301.09;;;48.53;14.44
70302;BME280;57706;56.326;43.882;2022-08-05T10:13:36;101304.03;;;45.24;16.71
70302;BME280;57706;56.326;43.882;2022-08-05T10:16:03;101310.50;;;43.20;18.65
70302;BME280;57706;56.326;43.882;2022-08-05T10:18:31;101304.53;;;43.38;18.94
70302;BME280;57706;56.326;43.882;2022-08-05T10:21:00;101309.34;;;49.42;14.19
70302;BME280;57706;56.326;43.882;2022-08-05T10:23:34;101296.81;;;53.23;11.25
70302;BME280;57706;56.326;43.882;2022-08-05T10:26:06;101305.34;;;53.95;10.95
70302;BME280;57706;56.326;43.882;2022-08-05T10:28:33;101304.31;;;52.39;12.04
70302;BME280;57706;56.326;43.882;2022-08-05T10:31:00;101301.72;;;53.35;11.55
70302;BME280;57706;56.326;43.882;2022-08-05T10:33:45;101292.53;;;49.49;14.40
70302;BME280;57706;56.326;43.882;2022-08-05T10:36:12;101295.66;;;53.20;11.72
70302;BME280;57706;56.326;43.882;2022-08-05T10:38:41;101296.06;;;55.86;9.97
70302;BME280;57706;56.326;43.882;2022-08-05T10:41:27;101292.25;;;55.09;10.36
70302;BME280;57706;56.326;43.882;2022-08-05T10:44:01;101295.84;;;49.37;14.02
70302;BME280;57706;56.326;43.882;2022-08-05T10:46:48;101290.31;;;45.84;16.95
70302;BME280;57706;56.326;43.882;2022-08-05T10:49:18;101291.63;;;43.69;19.15
70302;BME280;57706;56.326;43.882;2022-08-05T10:51:48;101293.94;;;42.61;20.28
70302;BME280;57706;56.326;43.882;2022-08-05T10:54:16;101289.25;;;41.77;20.63
70302;BME280;57706;56.326;43.882;2022-08-05T10:56:44;101286.31;;;40.97;22.13
70302;BME280;57706;56.326;43.882;2022-08-05T10:59:18;101283.22;;;40.20;23.32
70302;BME280;57706;56.326;43.882;2022-08-05T11:01:44;101287.13;;;39.94;23.12
70302;BME280;57706;56.326;43.882;2022-08-05T11:09:27;101286.88;;;49.60;14.46
70302;BME280;57706;56.326;43.882;2022-08-05T11:12:00;101282.38;;;49.24;14.63
70302;BME280;57706;56.326;43.882;2022-08-05T11:14:32;101287.34;;;47.14;16.15
70302;BME280;57706;56.326;43.882;2022-08-05T11:19:53;101276.97;;;42.98;19.47
70302;BME280;57706;56.326;43.882;2022-08-05T11:22:42;101277.31;;;41.73;21.08
70302;BME280;57706;56.326;43.882;2022-08-05T11:25:34;101278.50;;;40.58;21.91
70302;BME280;57706;56.326;43.882;2022-08-05T11:35:50;101286.97;;;38.17;25.76
70302;BME280;57706;56.326;43.882;2022-08-05T11:38:17;101284.44;;;38.03;25.24
70302;BME280;57706;56.326;43.882;2022-08-05T11:41:03;101292.66;;;37.94;25.86
70302;BME280;57706;56.326;43.882;2022-08-05T11:43:30;101291.22;;;37.87;26.42
70302;BME280;57706;56.326;43.882;2022-08-05T11:45:57;101286.41;;;37.84;26.64
70302;BME280;57706;56.326;43.882;2022-08-05T11:48:24;101280.78;;;37.81;27.22
70302;BME280;57706;56.326;43.882;2022-08-05T11:50:51;101281.94;;;37.71;27.21
70302;BME280;57706;56.326;43.882;2022-08-05T11:53:18;101280.22;;;38.05;25.97
70302;BME280;57706;56.326;43.882;2022-08-05T11:55:55;101276.31;;;41.05;22.67
70302;BME280;57706;56.326;43.882;2022-08-05T11:58:34;101275.66;;;40.29;23.42
70302;BME280;57706;56.326;43.882;2022-08-05T12:01:08;101275.44;;;40.10;23.72
70302;BME280;57706;56.326;43.882;2022-08-05T12:03:49;101271.41;;;39.36;24.69
70302;BME280;57706;56.326;43.882;2022-08-05T12:06:23;101275.81;;;38.94;25.32
70302;BME280;57706;56.326;43.882;2022-08-05T12:08:53;101277.16;;;38.07;26.08
70302;BME280;57706;56.326;43.882;2022-08-05T12:11:24;101275.88;;;37.21;27.16
70302;BME280;57706;56.326;43.882;2022-08-05T12:14:04;101272.31;;;38.85;25.70
70302;BME280;57706;56.326;43.882;2022-08-05T12:16:34;101266.78;;;43.96;20.18
70302;BME280;57706;56.326;43.882;2022-08-05T12:19:01;101268.69;;;47.77;16.46
70302;BME280;57706;56.326;43.882;2022-08-05T12:21:30;101264.41;;;50.44;14.53
70302;BME280;57706;56.326;43.882;2022-08-05T12:26:22;101263.78;;;53.60;11.75
70302;BME280;57706;56.326;43.882;2022-08-05T12:28:47;101265.56;;;53.37;11.17
70302;BME280;57706;56.326;43.882;2022-08-05T12:31:14;101267.75;;;50.90;12.56
70302;BME280;57706;56.326;43.882;2022-08-05T12:33:42;101269.78;;;49.96;13.11
70302;BME280;57706;56.326;43.882;2022-08-05T12:36:08;101261.91;;;48.89;14.06
70302;BME280;57706;56.326;43.882;2022-08-05T12:38:36;101263.53;;;50.51;12.46
70302;BME280;57706;56.326;43.882;2022-08-05T12:41:14;101252.03;;;52.49;11.99
70302;BME280;57706;56.326;43.882;2022-08-05T12:43:56;101248.31;;;53.69;10.89
70302;BME280;57706;56.326;43.882;2022-08-05T12:46:26;101249.56;;;54.62;10.59
70302;BME280;57706;56.326;43.882;2022-08-05T12:49:13;101251.63;;;55.10;10.52
70302;BME280;57706;56.326;43.882;2022-08-05T12:51:52;101244.84;;;54.72;9.81
70302;BME280;57706;56.326;43.882;2022-08-05T12:54:28;101241.69;;;54.57;9.98
70302;BME280;57706;56.326;43.882;2022-08-05T12:56:58;101237.63;;;54.32;10.33
70302;BME280;57706;56.326;43.882;2022-08-05T12:59:29;101241.91;;;54.24;10.97
70302;BME280;57706;56.326;43.882;2022-08-05T13:02:04;101237.03;;;49.62;13.71
70302;BME280;57706;56.326;43.882;2022-08-05T13:04:32;101233.63;;;45.85;16.89
70302;BME280;57706;56.326;43.882;2022-08-05T13:07:01;101232.88;;;43.52;19.12
70302;BME280;57706;56.326;43.882;2022-08-05T13:09:28;101239.69;;;42.33;20.17
70302;BME280;57706;56.326;43.882;2022-08-05T13:12:01;101237.50;;;40.69;22.32
70302;BME280;57706;56.326;43.882;2022-08-05T13:14:33;101232.91;;;39.23;24.54
70302;BME280;57706;56.326;43.882;2022-08-05T13:16:59;101239.44;;;38.04;25.81
70302;BME280;57706;56.326;43.882;2022-08-05T13:19:27;101236.78;;;38.37;25.20
70302;BME280;57706;56.326;43.882;2022-08-05T13:21:54;101245.56;;;37.44;26.21
70302;BME280;57706;56.326;43.882;2022-08-05T13:24:22;101247.38;;;36.78;26.87
70302;BME280;57706;56.326;43.882;2022-08-05T13:26:49;101238.88;;;36.21;27.67
70302;BME280;57706;56.326;43.882;2022-08-05T13:29:16;101243.06;;;35.87;28.41
70302;BME280;57706;56.326;43.882;2022-08-05T13:31:44;101245.06;;;35.64;29.24